Chula Vista, California
Current Conditions -  °F | °C
As of 3:56 AM on Thursday 23 Oct 2014 (Local Time) from KNRS Reporting Station
Clear Clear  
Wind Chill: 58°   Ceiling: Unl
Heat Index: 58°   Visibility: 10mi
Dew Point: 55°   Wind: 3mph
Humidity: 90%   Direction: 40°NE
Pressure: 29.93"   Gusts: NA
Location:  32.64°N, 117.08°W
Report Text: KNRS 231056Z AUTO 04003KT 10SM CLR 14/13 A2993 RMK AO2 SLP134 T01440128 $
Loading
Personal Weather Stations






























Interactive Weather Map
Tropical Storm Tracking
New forecast layout! Learn more

10-Day Weather Forecast

Advertisements
Track Severe Weather on mobile